Time;durP1;ratioP1;P1;durP2;ratioP2;P2;SDS_P1;SDS_P2;PMS_P1;PMS_P2;Temp;Humidity;BMP_temperature;BMP_pressure;BME280_temperature;BME280_humidity;BME280_pressure;Samples;Min_cycle;Max_cycle;Signal;HPM_P1;HPM_P2
2021/12/03 00:00:37;;;;;;;1999.90;999.90;;;;;;;;;;4998951;28;20042;-84
2021/12/03 00:03:02;;;;;;;1999.90;999.90;;;;;;;;;;5014514;28;20029;-84
2021/12/03 00:05:28;;;;;;;1999.90;999.90;;;;;;;;;;4998912;28;20053;-84
2021/12/03 00:07:53;;;;;;;1999.90;999.90;;;;;;;;;;5032148;28;20040;-83
2021/12/03 00:10:24;;;;;;;1999.90;999.90;;;;;;;;;;5018711;28;20029;-84
2021/12/03 00:12:49;;;;;;;1999.90;999.90;;;;;;;;;;5018984;28;20029;-84
2021/12/03 00:15:15;;;;;;;1999.90;999.90;;;;;;;;;;5018046;28;20033;-85
2021/12/03 00:17:40;;;;;;;1999.90;999.90;;;;;;;;;;5018535;28;20553;-84
2021/12/03 00:20:08;;;;;;;1999.90;999.90;;;;;;;;;;5018169;28;20475;-85
2021/12/03 00:22:33;;;;;;;1999.90;999.90;;;;;;;;;;4993569;28;20117;-85
2021/12/03 00:24:59;;;;;;;1999.90;999.90;;;;;;;;;;5033684;28;20504;-84
2021/12/03 00:27:24;;;;;;;1999.90;999.90;;;;;;;;;;5018237;28;20029;-85
2021/12/03 00:29:50;;;;;;;1999.90;999.90;;;;;;;;;;5034509;28;20024;-85
2021/12/03 00:32:15;;;;;;;1999.90;999.90;;;;;;;;;;5001901;28;20479;-85
2021/12/03 00:34:41;;;;;;;1999.90;999.90;;;;;;;;;;5018216;28;20094;-86
2021/12/03 00:37:06;;;;;;;1999.90;999.90;;;;;;;;;;5017577;28;20033;-85
2021/12/03 00:39:31;;;;;;;1999.90;999.90;;;;;;;;;;5001602;28;20033;-85
2021/12/03 00:42:00;;;;;;;1999.90;999.90;;;;;;;;;;5017591;28;20375;-85
2021/12/03 00:44:26;;;;;;;1999.90;999.90;;;;;;;;;;5019304;28;20111;-84
2021/12/03 00:46:51;;;;;;;1999.90;999.90;;;;;;;;;;5001809;28;20501;-88
2021/12/03 00:49:17;;;;;;;1999.90;999.90;;;;;;;;;;5001939;28;20029;-88
2021/12/03 00:51:42;;;;;;;1999.90;999.90;;;;;;;;;;5018007;28;20037;-88
2021/12/03 00:54:08;;;;;;;1999.90;999.90;;;;;;;;;;5018016;28;20041;-87
2021/12/03 00:56:33;;;;;;;1999.90;999.90;;;;;;;;;;5017706;28;20041;-85
2021/12/03 00:58:59;;;;;;;1999.90;999.90;;;;;;;;;;5001211;28;20031;-86
2021/12/03 01:01:24;;;;;;;1999.90;999.90;;;;;;;;;;5000692;28;20064;-85
2021/12/03 01:03:49;;;;;;;1999.90;999.90;;;;;;;;;;5001359;28;20032;-85
2021/12/03 01:06:15;;;;;;;1999.90;999.90;;;;;;;;;;5001320;28;20482;-85
2021/12/03 01:08:40;;;;;;;1999.90;999.90;;;;;;;;;;5010015;28;20119;-87
2021/12/03 01:11:07;;;;;;;1999.90;999.90;;;;;;;;;;5033523;28;20056;-85
2021/12/03 01:13:33;;;;;;;1999.90;999.90;;;;;;;;;;5017577;28;20040;-85
2021/12/03 01:16:00;;;;;;;1999.90;999.90;;;;;;;;;;4983361;28;20029;-85
2021/12/03 01:18:25;;;;;;;1999.90;999.90;;;;;;;;;;5014199;28;20025;-85
2021/12/03 01:20:51;;;;;;;1999.90;999.90;;;;;;;;;;5013728;28;20124;-87
2021/12/03 01:23:16;;;;;;;1999.90;999.90;;;;;;;;;;4997850;28;20041;-85
2021/12/03 01:25:42;;;;;;;1999.90;999.90;;;;;;;;;;5014776;28;20041;-85
2021/12/03 01:28:08;;;;;;;1999.90;999.90;;;;;;;;;;5034037;28;20525;-85
2021/12/03 01:30:34;;;;;;;1999.90;999.90;;;;;;;;;;5001054;28;20033;-86
2021/12/03 01:33:00;;;;;;;1999.90;999.90;;;;;;;;;;5033946;28;20390;-85
2021/12/03 01:35:25;;;;;;;1999.90;999.90;;;;;;;;;;5000739;28;20032;-85
2021/12/03 01:37:51;;;;;;;1999.90;999.90;;;;;;;;;;5033331;28;20090;-85
2021/12/03 01:40:18;;;;;;;1999.90;999.90;;;;;;;;;;5017143;28;20475;-85
2021/12/03 01:42:45;;;;;;;1999.90;999.90;;;;;;;;;;5033983;28;20029;-85
2021/12/03 01:45:21;;;;;;;1999.90;999.90;;;;;;;;;;5034055;28;20032;-84
2021/12/03 01:47:47;;;;;;;1999.90;999.90;;;;;;;;;;5018738;28;20383;-84
2021/12/03 01:50:13;;;;;;;1999.90;999.90;;;;;;;;;;5016876;28;20194;-85
2021/12/03 01:52:39;;;;;;;1999.90;999.90;;;;;;;;;;5034054;28;20037;-84
2021/12/03 01:55:06;;;;;;;1999.90;999.90;;;;;;;;;;5016809;28;20449;-85
2021/12/03 01:57:31;;;;;;;1999.90;999.90;;;;;;;;;;5016744;28;20025;-84
2021/12/03 01:59:56;;;;;;;1999.90;999.90;;;;;;;;;;5007996;28;20399;-85
2021/12/03 02:02:22;;;;;;;1999.90;999.90;;;;;;;;;;5033314;28;20036;-84
2021/12/03 02:04:47;;;;;;;1999.90;999.90;;;;;;;;;;5033658;28;20037;-84
2021/12/03 02:07:13;;;;;;;1999.90;999.90;;;;;;;;;;5032714;28;20048;-84
2021/12/03 02:09:39;;;;;;;1999.90;999.90;;;;;;;;;;5000728;28;20429;-85
2021/12/03 02:12:05;;;;;;;1999.90;999.90;;;;;;;;;;5016951;28;20021;-85
2021/12/03 02:14:30;;;;;;;1999.90;999.90;;;;;;;;;;5014313;28;20029;-86
2021/12/03 02:16:55;;;;;;;1999.90;999.90;;;;;;;;;;5017174;28;20030;-85
2021/12/03 02:19:21;;;;;;;1999.90;999.90;;;;;;;;;;5001942;28;20087;-84
2021/12/03 02:21:46;;;;;;;1999.90;999.90;;;;;;;;;;5036267;28;20052;-84
2021/12/03 02:24:12;;;;;;;1999.90;999.90;;;;;;;;;;5036442;28;20509;-84
2021/12/03 02:26:39;;;;;;;1999.90;999.90;;;;;;;;;;5020772;28;20429;-85
2021/12/03 02:29:04;;;;;;;1999.90;999.90;;;;;;;;;;5020694;28;20040;-86
2021/12/03 02:31:30;;;;;;;1999.90;999.90;;;;;;;;;;5020746;28;20096;-86
2021/12/03 02:33:55;;;;;;;1999.90;999.90;;;;;;;;;;5004280;28;20029;-84
2021/12/03 02:36:21;;;;;;;1999.90;999.90;;;;;;;;;;5003882;28;20151;-86
2021/12/03 02:38:46;;;;;;;1607.35;766.60;;;;;;;;;;5019978;28;20258;-84
2021/12/03 02:41:12;;;;;;;1999.90;999.90;;;;;;;;;;5003625;28;20036;-85
2021/12/03 02:43:37;;;;;;;1999.90;999.90;;;;;;;;;;5036953;28;20043;-84
2021/12/03 02:46:03;;;;;;;1999.90;999.90;;;;;;;;;;5033301;28;20033;-84
2021/12/03 02:48:31;;;;;;;1999.90;999.90;;;;;;;;;;4983974;28;20396;-85
2021/12/03 02:50:56;;;;;;;1999.90;999.90;;;;;;;;;;5006807;28;20060;-85
2021/12/03 02:53:22;;;;;;;1999.90;999.90;;;;;;;;;;5036485;28;20076;-85
2021/12/03 02:55:47;;;;;;;1999.90;999.90;;;;;;;;;;5036667;28;20025;-86
2021/12/03 02:58:12;;;;;;;1999.90;999.90;;;;;;;;;;5036627;28;20489;-85
2021/12/03 03:00:38;;;;;;;1999.90;999.90;;;;;;;;;;5052843;28;20078;-86
2021/12/03 03:03:03;;;;;;;1999.90;999.90;;;;;;;;;;5000546;28;20033;-87
2021/12/03 03:05:29;;;;;;;1999.90;999.90;;;;;;;;;;5018033;28;20026;-86
2021/12/03 03:07:55;;;;;;;1999.90;999.90;;;;;;;;;;4989848;28;20372;-87
2021/12/03 03:10:25;;;;;;;1999.90;999.90;;;;;;;;;;5036398;28;20029;-85
2021/12/03 03:12:51;;;;;;;1999.90;999.90;;;;;;;;;;5020799;28;20387;-87
2021/12/03 03:15:17;;;;;;;1999.90;999.90;;;;;;;;;;5003582;28;20029;-87
2021/12/03 03:17:42;;;;;;;1999.90;999.90;;;;;;;;;;5010205;28;20072;-86
2021/12/03 03:20:08;;;;;;;1999.90;999.90;;;;;;;;;;5019411;28;20033;-86
2021/12/03 03:22:35;;;;;;;1999.90;999.90;;;;;;;;;;5019486;28;20187;-85
2021/12/03 03:25:00;;;;;;;1999.90;999.90;;;;;;;;;;5034864;28;20446;-86
2021/12/03 03:27:26;;;;;;;1999.90;999.90;;;;;;;;;;5019444;28;20028;-86
2021/12/03 03:29:52;;;;;;;1999.90;999.90;;;;;;;;;;5019699;28;20494;-85
2021/12/03 03:32:18;;;;;;;1999.90;999.90;;;;;;;;;;5019604;28;20075;-86
2021/12/03 03:34:43;;;;;;;1999.90;999.90;;;;;;;;;;5019488;28;20069;-86
2021/12/03 03:37:09;;;;;;;1999.90;999.90;;;;;;;;;;5035156;28;20120;-86
2021/12/03 03:39:34;;;;;;;1999.90;999.90;;;;;;;;;;5003275;28;20044;-85
2021/12/03 03:41:59;;;;;;;1999.90;999.90;;;;;;;;;;5003187;28;20032;-86
2021/12/03 03:44:25;;;;;;;1999.90;999.90;;;;;;;;;;5015297;28;20037;-86
2021/12/03 03:46:51;;;;;;;1999.90;999.90;;;;;;;;;;4999389;28;20033;-86
2021/12/03 03:49:17;;;;;;;1999.90;999.90;;;;;;;;;;4999605;28;20025;-87
2021/12/03 03:51:44;;;;;;;1999.90;999.90;;;;;;;;;;4999109;28;20076;-86
2021/12/03 03:54:09;;;;;;;1999.90;999.90;;;;;;;;;;5015871;28;20080;-88
2021/12/03 03:56:35;;;;;;;1999.90;999.90;;;;;;;;;;5015667;28;20037;-87
2021/12/03 03:59:00;;;;;;;1999.90;999.90;;;;;;;;;;5015220;28;20036;-87
2021/12/03 04:01:26;;;;;;;1999.90;999.90;;;;;;;;;;5015428;28;20476;-86
2021/12/03 04:03:51;;;;;;;1999.90;999.90;;;;;;;;;;5015957;28;20120;-86
2021/12/03 04:06:17;;;;;;;1999.90;999.90;;;;;;;;;;5015280;28;20037;-86
2021/12/03 04:08:43;;;;;;;1999.90;999.90;;;;;;;;;;5008184;28;20156;-87
2021/12/03 04:11:08;;;;;;;1999.90;999.90;;;;;;;;;;5015879;28;20488;-86
2021/12/03 04:13:34;;;;;;;1999.90;999.90;;;;;;;;;;5010670;28;20487;-86
2021/12/03 04:15:59;;;;;;;1999.90;999.90;;;;;;;;;;4999238;28;20034;-86
2021/12/03 04:18:25;;;;;;;1999.90;999.90;;;;;;;;;;4999162;28;20040;-87
2021/12/03 04:20:50;;;;;;;1999.90;999.90;;;;;;;;;;4982440;28;20368;-87
2021/12/03 04:23:19;;;;;;;1999.90;999.90;;;;;;;;;;4999240;28;20043;-85
2021/12/03 04:25:48;;;;;;;1999.90;999.90;;;;;;;;;;4983925;28;20075;-87
2021/12/03 04:28:14;;;;;;;1999.90;999.90;;;;;;;;;;4997648;28;20037;-86
2021/12/03 04:30:40;;;;;;;1999.90;999.90;;;;;;;;;;5018294;28;20025;-87
2021/12/03 04:33:06;;;;;;;1999.90;999.90;;;;;;;;;;5018697;28;20082;-88
2021/12/03 04:35:31;;;;;;;1999.90;999.90;;;;;;;;;;5017798;28;20025;-88
2021/12/03 04:37:57;;;;;;;1999.90;999.90;;;;;;;;;;4998298;28;20029;-87
2021/12/03 04:40:22;;;;;;;1999.90;999.90;;;;;;;;;;4995344;28;20044;-88
2021/12/03 04:42:48;;;;;;;1999.90;999.90;;;;;;;;;;5018372;28;20046;-86
2021/12/03 04:45:15;;;;;;;1999.90;999.90;;;;;;;;;;5018221;28;20087;-87
2021/12/03 04:47:42;;;;;;;1999.90;999.90;;;;;;;;;;5017934;28;20471;-87
2021/12/03 04:50:09;;;;;;;1999.90;999.90;;;;;;;;;;5017385;28;20033;-86
2021/12/03 04:52:34;;;;;;;1999.90;999.90;;;;;;;;;;5034816;28;20127;-88
2021/12/03 04:55:00;;;;;;;1999.90;999.90;;;;;;;;;;5034656;28;20029;-85
2021/12/03 04:57:25;;;;;;;1999.90;999.90;;;;;;;;;;5032710;28;20024;-86
2021/12/03 04:59:52;;;;;;;1999.90;999.90;;;;;;;;;;5017706;28;20029;-86
2021/12/03 05:02:19;;;;;;;1999.90;999.90;;;;;;;;;;5034056;28;20029;-85
2021/12/03 05:04:45;;;;;;;1999.90;999.90;;;;;;;;;;5033825;28;20056;-86
2021/12/03 05:09:36;;;;;;;1999.90;999.90;;;;;;;;;;5050419;28;20508;-87
2021/12/03 05:12:02;;;;;;;1999.90;999.90;;;;;;;;;;5034219;28;20108;-87
2021/12/03 05:14:28;;;;;;;1999.90;999.90;;;;;;;;;;5030634;28;20112;-86
2021/12/03 05:16:53;;;;;;;1999.90;999.90;;;;;;;;;;5014354;28;20099;-86
2021/12/03 05:19:19;;;;;;;1999.90;999.90;;;;;;;;;;5014425;28;20029;-85
2021/12/03 05:21:44;;;;;;;1999.90;999.90;;;;;;;;;;5010384;28;20047;-86
2021/12/03 05:24:10;;;;;;;1999.90;999.90;;;;;;;;;;5001650;28;20029;-86
2021/12/03 05:26:36;;;;;;;1999.90;999.90;;;;;;;;;;5017741;28;20025;-86
2021/12/03 05:29:02;;;;;;;1999.90;999.90;;;;;;;;;;5001444;28;20454;-85
2021/12/03 05:31:27;;;;;;;1999.90;999.90;;;;;;;;;;5017396;28;20087;-87
2021/12/03 05:33:53;;;;;;;1999.90;999.90;;;;;;;;;;5001045;28;20029;-86
2021/12/03 05:36:18;;;;;;;1999.90;999.90;;;;;;;;;;5033905;28;20110;-86
2021/12/03 05:38:44;;;;;;;1999.90;999.90;;;;;;;;;;5017121;28;20048;-86
2021/12/03 05:41:09;;;;;;;1999.90;999.90;;;;;;;;;;5033966;28;20474;-86
2021/12/03 05:43:34;;;;;;;1999.90;999.90;;;;;;;;;;5033863;28;20395;-86
2021/12/03 05:46:00;;;;;;;1999.90;999.90;;;;;;;;;;5017564;28;20033;-86
2021/12/03 05:48:25;;;;;;;1999.90;999.90;;;;;;;;;;5035924;28;20087;-86
2021/12/03 05:50:51;;;;;;;1999.90;999.90;;;;;;;;;;5004427;28;20080;-86
2021/12/03 05:53:16;;;;;;;1999.90;999.90;;;;;;;;;;5005265;28;20029;-86
2021/12/03 05:55:42;;;;;;;1999.90;999.90;;;;;;;;;;5005021;28;20187;-86
2021/12/03 05:58:08;;;;;;;1999.90;999.90;;;;;;;;;;5021129;28;20529;-86
2021/12/03 06:00:39;;;;;;;1999.90;999.90;;;;;;;;;;5005208;28;20040;-86
2021/12/03 06:03:05;;;;;;;1999.90;999.90;;;;;;;;;;5001224;28;20116;-87
2021/12/03 06:05:30;;;;;;;1999.90;999.90;;;;;;;;;;4985445;28;20044;-86
2021/12/03 06:07:56;;;;;;;1999.90;999.90;;;;;;;;;;4991216;28;20032;-85
2021/12/03 06:10:22;;;;;;;1999.90;999.90;;;;;;;;;;5021140;28;20147;-85
2021/12/03 06:12:47;;;;;;;1999.90;999.90;;;;;;;;;;5021205;28;20520;-84
2021/12/03 06:15:13;;;;;;;1999.90;999.90;;;;;;;;;;5004202;28;20494;-84
2021/12/03 06:17:38;;;;;;;1999.90;999.90;;;;;;;;;;5012916;28;20509;-84
2021/12/03 06:20:05;;;;;;;1999.90;999.90;;;;;;;;;;5037540;28;20087;-82
2021/12/03 06:22:30;;;;;;;1999.90;999.90;;;;;;;;;;5003981;28;20091;-84
2021/12/03 06:24:56;;;;;;;1999.90;999.90;;;;;;;;;;5020670;28;20033;-82
2021/12/03 06:27:22;;;;;;;1999.90;999.90;;;;;;;;;;5053542;28;20033;-83
2021/12/03 06:29:48;;;;;;;1999.90;999.90;;;;;;;;;;5037228;28;20037;-83
2021/12/03 06:32:13;;;;;;;1999.90;999.90;;;;;;;;;;5032995;28;20044;-83
2021/12/03 06:34:38;;;;;;;1999.90;999.90;;;;;;;;;;5000447;28;20033;-82
2021/12/03 06:37:04;;;;;;;1999.90;999.90;;;;;;;;;;5016858;28;20037;-82
2021/12/03 06:39:29;;;;;;;1999.90;999.90;;;;;;;;;;5017366;28;20061;-83
2021/12/03 06:41:55;;;;;;;1999.90;999.90;;;;;;;;;;4984417;28;20083;-83
2021/12/03 06:44:21;;;;;;;1999.90;999.90;;;;;;;;;;4984050;28;20391;-83
2021/12/03 06:46:46;;;;;;;1999.90;999.90;;;;;;;;;;5007720;28;20115;-88
2021/12/03 06:49:12;;;;;;;1999.90;999.90;;;;;;;;;;5036164;28;20399;-82
2021/12/03 06:51:42;;;;;;;1999.90;999.90;;;;;;;;;;5050445;28;20040;-84
2021/12/03 06:54:10;;;;;;;1999.90;999.90;;;;;;;;;;5018342;28;20037;-88
2021/12/03 06:56:48;;;;;;;1999.90;999.90;;;;;;;;;;5036131;28;20052;-84
2021/12/03 06:59:17;;;;;;;1999.90;999.90;;;;;;;;;;5021268;28;20467;-86
2021/12/03 07:01:42;;;;;;;1999.90;999.90;;;;;;;;;;5000296;28;20033;-85
2021/12/03 07:04:08;;;;;;;1999.90;999.90;;;;;;;;;;5016757;28;20040;-87
2021/12/03 07:06:33;;;;;;;1999.90;999.90;;;;;;;;;;5020023;28;20094;-90
2021/12/03 07:08:59;;;;;;;1999.90;999.90;;;;;;;;;;4993015;28;20045;-87
2021/12/03 07:11:24;;;;;;;1999.90;999.90;;;;;;;;;;5003580;28;20028;-86
2021/12/03 07:13:49;;;;;;;1999.90;999.90;;;;;;;;;;5002899;28;20076;-87
2021/12/03 07:16:15;;;;;;;1999.90;999.90;;;;;;;;;;5010421;28;20087;-87
2021/12/03 07:18:42;;;;;;;1999.90;999.90;;;;;;;;;;5019658;28;20110;-89
2021/12/03 07:21:08;;;;;;;1999.90;999.90;;;;;;;;;;5020708;28;20025;-89
2021/12/03 07:23:33;;;;;;;1999.90;999.90;;;;;;;;;;5036682;28;20114;-88
2021/12/03 07:26:01;;;;;;;1999.90;999.90;;;;;;;;;;5016533;28;20120;-85
2021/12/03 07:28:27;;;;;;;1999.90;999.90;;;;;;;;;;4984876;28;20064;-87
2021/12/03 07:30:52;;;;;;;1999.90;999.90;;;;;;;;;;5013797;28;20029;-84
2021/12/03 07:33:18;;;;;;;1999.90;999.90;;;;;;;;;;5003148;28;20043;-88
2021/12/03 07:35:45;;;;;;;1999.90;999.90;;;;;;;;;;5001838;28;20033;-88
2021/12/03 07:38:11;;;;;;;1999.90;999.90;;;;;;;;;;5002070;28;20096;-90
2021/12/03 07:40:37;;;;;;;1999.90;999.90;;;;;;;;;;5019096;28;20029;-90
2021/12/03 07:43:02;;;;;;;1999.90;999.90;;;;;;;;;;5019905;28;20090;-90
2021/12/03 07:45:28;;;;;;;1999.90;999.90;;;;;;;;;;5003657;28;20098;-90
2021/12/03 07:47:54;;;;;;;1999.90;999.90;;;;;;;;;;5019667;28;20036;-87
2021/12/03 07:50:20;;;;;;;1999.90;999.90;;;;;;;;;;5019009;28;20073;-88
2021/12/03 07:52:45;;;;;;;1999.90;999.90;;;;;;;;;;5002961;28;20059;-87
2021/12/03 07:55:11;;;;;;;1999.90;999.90;;;;;;;;;;5035730;28;20501;-87
2021/12/03 07:57:36;;;;;;;1999.90;999.90;;;;;;;;;;5002603;28;20043;-87
2021/12/03 08:00:03;;;;;;;1999.90;999.90;;;;;;;;;;5018477;28;20047;-88
2021/12/03 08:02:29;;;;;;;1999.90;999.90;;;;;;;;;;5016003;28;20068;-87
2021/12/03 08:04:54;;;;;;;1999.90;999.90;;;;;;;;;;4997650;28;20017;-87
2021/12/03 08:07:20;;;;;;;1999.90;999.90;;;;;;;;;;5019583;28;20041;-87
2021/12/03 08:09:45;;;;;;;1999.90;999.90;;;;;;;;;;5001085;28;20029;-87
2021/12/03 08:12:11;;;;;;;1999.90;999.90;;;;;;;;;;5014109;28;20082;-86
2021/12/03 08:14:36;;;;;;;1999.90;999.90;;;;;;;;;;5010463;28;20033;-86
2021/12/03 08:17:02;;;;;;;1999.90;999.90;;;;;;;;;;5016854;28;20049;-86
2021/12/03 08:19:27;;;;;;;1999.90;999.90;;;;;;;;;;4999418;28;20021;-85
2021/12/03 08:21:53;;;;;;;1999.90;999.90;;;;;;;;;;4982160;28;20429;-86
2021/12/03 08:24:18;;;;;;;1999.90;999.90;;;;;;;;;;4997549;28;20042;-86
2021/12/03 08:26:43;;;;;;;1999.90;999.90;;;;;;;;;;4980605;28;20033;-86
2021/12/03 08:29:09;;;;;;;1999.90;999.90;;;;;;;;;;5013498;28;20022;-85
2021/12/03 08:31:35;;;;;;;1999.90;999.90;;;;;;;;;;4990021;28;20120;-86
2021/12/03 08:34:01;;;;;;;1999.90;999.90;;;;;;;;;;5016310;28;20112;-86
2021/12/03 08:36:26;;;;;;;1999.90;999.90;;;;;;;;;;5015859;28;20051;-86
2021/12/03 08:38:52;;;;;;;1999.90;999.90;;;;;;;;;;5016268;28;20029;-87
2021/12/03 08:41:18;;;;;;;1999.90;999.90;;;;;;;;;;5001764;28;20025;-86
2021/12/03 08:43:47;;;;;;;1999.90;999.90;;;;;;;;;;5034591;28;20032;-86
2021/12/03 08:46:18;;;;;;;1999.90;999.90;;;;;;;;;;5002017;28;20037;-86
2021/12/03 08:48:47;;;;;;;1999.90;999.90;;;;;;;;;;5019656;28;20021;-87
2021/12/03 08:56:30;;;;;;;1999.90;999.90;;;;;;;;;;5036795;28;20032;-86
2021/12/03 08:58:56;;;;;;;1999.90;999.90;;;;;;;;;;5001956;28;20115;-87
2021/12/03 09:01:22;;;;;;;1999.90;999.90;;;;;;;;;;4997701;28;20030;-86
2021/12/03 09:03:49;;;;;;;1999.90;999.90;;;;;;;;;;4981081;28;20112;-88
2021/12/03 09:06:14;;;;;;;1999.90;999.90;;;;;;;;;;4981843;28;20472;-86
2021/12/03 09:08:40;;;;;;;1999.90;999.90;;;;;;;;;;5009476;28;20048;-88
2021/12/03 09:11:05;;;;;;;1999.90;999.90;;;;;;;;;;4996396;28;20025;-87
2021/12/03 09:13:31;;;;;;;1999.90;999.90;;;;;;;;;;4998705;28;20059;-89
2021/12/03 09:16:04;;;;;;;1999.90;999.90;;;;;;;;;;5017969;28;20029;-87
2021/12/03 09:21:00;;;;;;;1999.90;999.90;;;;;;;;;;5018364;28;20108;-88
2021/12/03 09:23:41;;;;;;;1999.90;999.90;;;;;;;;;;4988563;28;20041;-89
2021/12/03 09:26:12;;;;;;;1999.90;999.90;;;;;;;;;;5002961;28;20033;-90
2021/12/03 09:28:40;;;;;;;1999.90;999.90;;;;;;;;;;4988369;28;20072;-88
2021/12/03 09:31:05;;;;;;;1999.90;999.90;;;;;;;;;;5034907;28;20051;-91
2021/12/03 09:33:33;;;;;;;1999.90;999.90;;;;;;;;;;5018156;28;20032;-88
2021/12/03 09:36:02;;;;;;;1999.90;999.90;;;;;;;;;;5019298;28;20063;-86
2021/12/03 09:38:31;;;;;;;1999.90;999.90;;;;;;;;;;5009350;28;20033;-87
2021/12/03 09:41:05;;;;;;;1999.90;999.90;;;;;;;;;;4993689;28;20029;-88
2021/12/03 09:43:30;;;;;;;1999.90;999.90;;;;;;;;;;4985640;28;20549;-90
2021/12/03 09:46:10;;;;;;;1999.90;999.90;;;;;;;;;;5018145;28;20033;-89
2021/12/03 09:48:53;;;;;;;1999.90;999.90;;;;;;;;;;5005031;28;20021;-88
2021/12/03 09:51:20;;;;;;;1999.90;999.90;;;;;;;;;;5001668;28;20457;-86
2021/12/03 09:56:33;;;;;;;1999.90;999.90;;;;;;;;;;5007525;28;20095;-92
2021/12/03 10:04:57;;;;;;;1999.90;999.90;;;;;;;;;;5023794;28;20061;-90
2021/12/03 10:15:58;;;;;;;1999.90;999.90;;;;;;;;;;5026064;28;20021;-92
2021/12/03 10:18:09;;;;;;;1999.90;999.90;;;;;;;;;;5021975;28;20033;-91
2021/12/03 10:20:57;;;;;;;1999.90;999.90;;;;;;;;;;5002458;28;20059;-92
2021/12/03 10:40:08;;;;;;;1999.90;999.90;;;;;;;;;;4989783;28;20033;-82
2021/12/03 10:42:57;;;;;;;1999.90;999.90;;;;;;;;;;5001145;28;20102;-82
2021/12/03 11:07:19;;;;;;;1999.90;999.90;;;;;;;;;;5004550;28;20042;-86
2021/12/03 12:04:52;;;;;;;1999.90;999.90;;;;;;;;;;5016808;28;20041;-87
2021/12/03 12:38:53;;;;;;;1999.90;999.90;;;;;;;;;;4996985;28;20072;-87
2021/12/03 14:08:35;;;;;;;1999.90;999.90;;;;;;;;;;5036285;28;20037;-88
2021/12/03 14:36:33;;;;;;;1999.90;999.90;;;;;;;;;;5040408;28;20431;-87
2021/12/03 14:42:37;;;;;;;1999.90;999.90;;;;;;;;;;5011521;28;20033;-86
2021/12/03 14:44:55;;;;;;;1999.90;999.90;;;;;;;;;;5012773;28;20323;-88
2021/12/03 14:55:35;;;;;;;1999.90;999.90;;;;;;;;;;5064205;28;23329;-87
2021/12/03 14:58:09;;;;;;;1999.90;999.90;;;;;;;;;;5004818;28;20021;-87
2021/12/03 15:00:48;;;;;;;1999.90;999.90;;;;;;;;;;5004977;28;20368;-87
2021/12/03 15:31:50;;;;;;;1999.90;999.90;;;;;;;;;;5013478;28;20064;-87
2021/12/03 15:40:07;;;;;;;1999.90;999.90;;;;;;;;;;5018534;28;20529;-86
2021/12/03 15:56:23;;;;;;;1999.90;999.90;;;;;;;;;;5033404;28;20048;-87
2021/12/03 16:04:26;;;;;;;1999.90;999.90;;;;;;;;;;5038400;28;20059;-86
2021/12/03 16:12:45;;;;;;;1999.90;999.90;;;;;;;;;;5020000;28;20033;-87
2021/12/03 16:23:04;;;;;;;1999.90;999.90;;;;;;;;;;5015334;28;20037;-86
2021/12/03 16:44:22;;;;;;;1999.90;999.90;;;;;;;;;;5019273;28;20067;-90
2021/12/03 16:46:56;;;;;;;1999.90;999.90;;;;;;;;;;5047619;28;20045;-89
2021/12/03 16:51:51;;;;;;;1999.90;999.90;;;;;;;;;;5015213;28;20025;-90
2021/12/03 16:54:23;;;;;;;1999.90;999.90;;;;;;;;;;5031532;28;20029;-90
2021/12/03 16:56:51;;;;;;;1999.90;999.90;;;;;;;;;;5015596;28;20557;-90
2021/12/03 16:59:17;;;;;;;1999.90;999.90;;;;;;;;;;4999418;28;20091;-87
2021/12/03 17:01:48;;;;;;;1999.90;999.90;;;;;;;;;;5005803;28;20043;-86
2021/12/03 17:20:08;;;;;;;1999.90;999.90;;;;;;;;;;5037391;28;20032;-86
2021/12/03 18:00:24;;;;;;;1999.90;999.90;;;;;;;;;;5020598;28;20025;-90
2021/12/03 18:02:53;;;;;;;1999.90;999.90;;;;;;;;;;5017026;28;20034;-89
2021/12/03 18:13:34;;;;;;;1999.90;999.90;;;;;;;;;;5040324;28;20025;-88
2021/12/03 18:56:09;;;;;;;1999.90;999.90;;;;;;;;;;4995188;28;20045;-85
2021/12/03 18:58:36;;;;;;;1999.90;999.90;;;;;;;;;;5021361;28;20037;-85
2021/12/03 19:01:01;;;;;;;1999.90;999.90;;;;;;;;;;5036147;28;20043;-85
2021/12/03 19:06:11;;;;;;;1999.90;999.90;;;;;;;;;;5037131;28;20479;-85
2021/12/03 19:11:15;;;;;;;1999.90;999.90;;;;;;;;;;5036402;28;20031;-84
2021/12/03 19:13:41;;;;;;;1784.72;776.45;;;;;;;;;;5040431;28;20033;-86
2021/12/03 19:16:09;;;;;;;592.10;37.58;;;;;;;;;;5016685;28;20028;-85
2021/12/03 19:18:35;;;;;;;1525.18;548.72;;;;;;;;;;4984249;28;20029;-86
2021/12/03 19:21:06;;;;;;;1999.90;999.90;;;;;;;;;;4999996;28;20037;-86
2021/12/03 19:23:31;;;;;;;1999.90;999.90;;;;;;;;;;5002033;28;20037;-86
2021/12/03 19:25:57;;;;;;;1999.90;999.90;;;;;;;;;;4993651;28;20388;-86
2021/12/03 19:28:22;;;;;;;1172.75;107.80;;;;;;;;;;5016161;28;20192;-78
2021/12/03 19:30:48;;;;;;;1779.28;779.85;;;;;;;;;;5033964;28;20037;-82
2021/12/03 19:33:13;;;;;;;1760.22;572.70;;;;;;;;;;5002363;28;20040;-82
2021/12/03 19:35:39;;;;;;;1879.85;780.80;;;;;;;;;;5019276;28;20029;-81
2021/12/03 19:38:05;;;;;;;1787.90;780.33;;;;;;;;;;5019448;28;20036;-83
2021/12/03 19:40:35;;;;;;;1730.60;774.15;;;;;;;;;;5019687;28;20032;-82
2021/12/03 19:43:09;;;;;;;1711.95;554.85;;;;;;;;;;5016867;28;20098;-81
2021/12/03 19:45:43;;;;;;;1791.05;583.05;;;;;;;;;;5000523;28;20045;-82
2021/12/03 19:48:12;;;;;;;1999.90;999.90;;;;;;;;;;5001202;28;20029;-81
2021/12/03 19:50:43;;;;;;;853.58;71.95;;;;;;;;;;5016500;28;20104;-82
2021/12/03 19:53:20;;;;;;;1890.40;799.28;;;;;;;;;;5020196;28;20090;-81
2021/12/03 19:55:46;;;;;;;1999.90;999.90;;;;;;;;;;5036813;28;20025;-82
2021/12/03 19:58:15;;;;;;;1746.38;783.80;;;;;;;;;;5018169;28;20055;-82
2021/12/03 20:00:41;;;;;;;1999.90;999.90;;;;;;;;;;5002619;28;20067;-82
2021/12/03 20:03:08;;;;;;;1549.47;539.03;;;;;;;;;;5010435;28;20034;-82
2021/12/03 20:05:34;;;;;;;822.83;95.25;;;;;;;;;;4999068;28;20041;-82
2021/12/03 20:08:01;;;;;;;1999.90;999.90;;;;;;;;;;5018178;28;20447;-82
2021/12/03 20:10:28;;;;;;;1777.60;771.55;;;;;;;;;;4999617;28;20048;-81
2021/12/03 20:12:53;;;;;;;1717.47;771.10;;;;;;;;;;5015513;28;20052;-83
2021/12/03 20:15:28;;;;;;;1679.55;766.35;;;;;;;;;;5011921;28;20505;-82
2021/12/03 20:18:06;;;;;;;1999.90;999.90;;;;;;;;;;5015313;28;20060;-89
2021/12/03 20:20:32;;;;;;;1999.90;999.90;;;;;;;;;;5003664;28;20112;-92
2021/12/03 20:23:26;;;;;;;1770.50;772.38;;;;;;;;;;4983654;28;20116;-90
2021/12/03 20:28:41;;;;;;;1999.90;999.90;;;;;;;;;;5029054;28;20082;-91
2021/12/03 20:31:08;;;;;;;1999.90;999.90;;;;;;;;;;5020611;28;20032;-92
2021/12/03 20:33:54;;;;;;;1740.25;793.90;;;;;;;;;;5036489;28;20029;-92
2021/12/03 20:39:34;;;;;;;1999.90;999.90;;;;;;;;;;4999544;28;20033;-90
2021/12/03 20:41:49;;;;;;;1754.95;770.53;;;;;;;;;;5002959;28;20033;-91
2021/12/03 20:47:24;;;;;;;1999.90;999.90;;;;;;;;;;5018511;28;20548;-92
2021/12/03 21:08:44;;;;;;;1999.90;999.90;;;;;;;;;;5028028;28;20029;-87
2021/12/03 21:13:43;;;;;;;1416.60;546.20;;;;;;;;;;5032395;28;20056;-88
2021/12/03 21:18:48;;;;;;;1999.90;999.90;;;;;;;;;;5035146;28;20459;-88
2021/12/03 21:22:00;;;;;;;1999.90;999.90;;;;;;;;;;5004161;28;20029;-87
2021/12/03 21:24:05;;;;;;;1366.75;528.95;;;;;;;;;;5027041;28;20043;-87
2021/12/03 21:26:32;;;;;;;1175.78;512.05;;;;;;;;;;5010720;28;20111;-89
2021/12/03 21:29:36;;;;;;;1999.90;999.90;;;;;;;;;;5009940;28;20546;-89
2021/12/03 21:40:26;;;;;;;1999.90;999.90;;;;;;;;;;5037282;28;20036;-87
2021/12/03 21:42:51;;;;;;;1661.85;764.50;;;;;;;;;;5020654;28;20033;-88
2021/12/03 21:45:17;;;;;;;1999.90;999.90;;;;;;;;;;5001444;28;20398;-87
2021/12/03 21:47:43;;;;;;;651.92;42.47;;;;;;;;;;5001678;28;20078;-87
2021/12/03 21:50:10;;;;;;;1418.22;542.17;;;;;;;;;;5001793;28;20033;-87
2021/12/03 21:52:36;;;;;;;1730.93;764.90;;;;;;;;;;5002125;28;20024;-87
2021/12/03 21:55:08;;;;;;;1999.90;999.90;;;;;;;;;;5001814;28;20037;-88
2021/12/03 21:57:35;;;;;;;1999.90;999.90;;;;;;;;;;5002888;28;20033;-87
2021/12/03 22:00:03;;;;;;;1999.90;999.90;;;;;;;;;;4998133;28;20033;-87
2021/12/03 22:02:30;;;;;;;1999.90;999.90;;;;;;;;;;5014993;28;20036;-88
2021/12/03 22:04:58;;;;;;;1072.13;77.88;;;;;;;;;;5001795;28;20086;-86
2021/12/03 22:07:25;;;;;;;1999.90;999.90;;;;;;;;;;4998605;28;20060;-88
2021/12/03 22:09:51;;;;;;;1999.90;999.90;;;;;;;;;;4998699;28;20033;-88
2021/12/03 22:12:17;;;;;;;1999.90;999.90;;;;;;;;;;4981677;28;20034;-87
2021/12/03 22:14:42;;;;;;;1648.32;766.42;;;;;;;;;;5006290;28;20047;-88